Time;durP1;ratioP1;P1;durP2;ratioP2;P2;SDS_P1;SDS_P2;PMS_P1;PMS_P2;Temp;Humidity;BMP_temperature;BMP_pressure;BME280_temperature;BME280_humidity;BME280_pressure;Samples;Min_cycle;Max_cycle;Signal;HPM_P1;HPM_P2
2022/04/17 00:00:30;;;;;;;14.32;5.03;;;9.70;67.80;;;;;;5093040;28;20614;-56
2022/04/17 00:02:56;;;;;;;8.43;4.75;;;9.70;68.20;;;;;;5093033;28;20172;-55
2022/04/17 00:05:21;;;;;;;8.75;4.65;;;9.60;68.60;;;;;;5092845;28;20705;-55
2022/04/17 00:07:47;;;;;;;19.33;5.82;;;9.60;69.00;;;;;;5092810;28;20165;-55
2022/04/17 00:10:13;;;;;;;7.03;3.72;;;9.60;69.00;;;;;;5092893;28;20622;-55
2022/04/17 00:12:40;;;;;;;24.15;11.00;;;9.50;69.30;;;;;;5093096;28;20195;-55
2022/04/17 00:15:10;;;;;;;22.90;9.63;;;9.50;69.70;;;;;;5093043;28;20168;-55
2022/04/17 00:17:42;;;;;;;41.28;13.90;;;9.50;69.90;;;;;;5093134;28;20205;-56
2022/04/17 00:20:17;;;;;;;43.25;14.05;;;9.50;70.20;;;;;;5093291;28;20165;-56
2022/04/17 00:22:44;;;;;;;25.67;10.82;;;9.50;70.70;;;;;;5092620;28;20173;-56
2022/04/17 00:25:11;;;;;;;36.72;13.48;;;9.50;70.90;;;;;;5093102;28;20173;-56
2022/04/17 00:27:39;;;;;;;44.95;17.95;;;9.40;70.90;;;;;;5092721;28;20165;-56
2022/04/17 00:30:05;;;;;;;30.45;13.93;;;9.40;71.00;;;;;;5092541;28;20252;-56
2022/04/17 00:32:31;;;;;;;19.02;8.90;;;9.40;71.80;;;;;;5092438;28;20508;-56
2022/04/17 00:34:58;;;;;;;8.98;5.13;;;9.40;71.50;;;;;;5092659;28;20195;-56
2022/04/17 00:37:24;;;;;;;36.28;18.50;;;9.30;71.80;;;;;;5092591;28;20237;-55
2022/04/17 00:39:51;;;;;;;14.43;7.10;;;9.30;72.50;;;;;;5092574;28;20668;-55
2022/04/17 00:42:16;;;;;;;8.55;4.75;;;9.20;72.80;;;;;;5092277;28;20247;-55
2022/04/17 00:44:42;;;;;;;6.78;3.70;;;9.20;73.10;;;;;;5092341;28;20204;-55
2022/04/17 00:47:09;;;;;;;5.22;3.45;;;9.20;72.90;;;;;;5092615;28;20165;-55
2022/04/17 00:49:34;;;;;;;6.78;4.07;;;9.20;73.00;;;;;;5092424;28;20533;-56
2022/04/17 00:52:01;;;;;;;9.13;6.60;;;9.10;73.30;;;;;;5092096;28;20165;-56
2022/04/17 00:54:29;;;;;;;6.95;3.70;;;9.10;73.10;;;;;;5092368;28;20169;-56
2022/04/17 00:56:56;;;;;;;7.85;4.20;;;9.10;73.60;;;;;;5091998;28;20212;-55
2022/04/17 00:59:22;;;;;;;7.22;4.47;;;9.10;74.80;;;;;;5092281;28;20173;-55
2022/04/17 01:01:47;;;;;;;9.60;4.50;;;9.10;74.40;;;;;;5092246;28;20218;-56
2022/04/17 01:04:14;;;;;;;5.93;3.80;;;9.10;74.80;;;;;;5091904;28;20161;-56
2022/04/17 01:06:40;;;;;;;5.30;3.58;;;10.90;75.60;;;;;;5092273;28;20725;-55
2022/04/17 01:09:06;;;;;;;6.20;3.70;;;8.90;74.90;;;;;;5092500;28;20181;-55
2022/04/17 01:11:32;;;;;;;7.60;4.88;;;8.90;75.50;;;;;;5092155;28;20248;-56
2022/04/17 01:13:58;;;;;;;7.38;4.78;;;8.90;75.80;;;;;;5092168;28;20170;-56
2022/04/17 01:16:25;;;;;;;11.77;6.30;;;8.90;76.10;;;;;;5091790;28;20211;-56
2022/04/17 01:19:01;;;;;;;3.80;3.05;;;8.90;76.70;;;;;;5091653;28;20191;-56
2022/04/17 01:21:27;;;;;;;4.15;3.22;;;8.90;77.20;;;;;;5091996;28;20242;-56
2022/04/17 01:26:58;;;;;;;3.13;2.42;;;8.70;79.50;;;;;;5092206;28;20179;-56
2022/04/17 01:29:40;;;;;;;5.05;3.28;;;8.70;80.80;;;;;;5091929;28;20165;-55
2022/04/17 01:32:07;;;;;;;3.85;2.80;;;8.60;82.60;;;;;;5092222;28;20177;-55
2022/04/17 01:34:34;;;;;;;4.35;2.67;;;8.50;84.10;;;;;;5091613;28;20166;-56
2022/04/17 01:37:00;;;;;;;3.83;3.17;;;8.50;86.30;;;;;;5091838;28;20204;-56
2022/04/17 01:39:26;;;;;;;7.32;3.25;;;8.50;88.40;;;;;;5091607;28;20173;-56
2022/04/17 01:41:53;;;;;;;3.22;2.92;;;8.50;90.60;;;;;;5091917;28;20176;-55
2022/04/17 01:44:18;;;;;;;6.13;2.88;;;8.50;91.40;;;;;;5091471;28;20486;-56
2022/04/17 01:46:45;;;;;;;4.82;3.15;;;8.60;91.80;;;;;;5091528;28;20172;-56
2022/04/17 01:49:12;;;;;;;4.05;3.13;;;8.60;92.60;;;;;;5091519;28;20181;-55
2022/04/17 01:51:39;;;;;;;5.13;2.70;;;8.50;92.40;;;;;;5091723;28;20696;-56
2022/04/17 01:54:07;;;;;;;5.00;3.00;;;8.60;94.20;;;;;;5091559;28;20161;-56
2022/04/17 01:56:34;;;;;;;3.17;2.78;;;8.50;93.40;;;;;;5091610;28;20557;-56
2022/04/17 01:59:00;;;;;;;7.82;3.20;;;8.50;94.20;;;;;;5091610;28;20260;-56
2022/04/17 02:01:25;;;;;;;6.65;2.47;;;8.50;95.60;;;;;;5091713;28;20252;-56
2022/04/17 02:03:51;;;;;;;7.65;2.75;;;8.30;97.30;;;;;;5091421;28;20693;-56
2022/04/17 02:06:16;;;;;;;3.53;2.95;;;8.30;98.30;;;;;;5091249;28;20217;-56
2022/04/17 02:08:44;;;;;;;3.45;2.67;;;8.30;99.90;;;;;;5091597;28;20283;-56
2022/04/17 02:11:10;;;;;;;4.80;3.28;;;8.30;99.90;;;;;;5091902;28;20170;-56
2022/04/17 02:13:36;;;;;;;5.00;3.00;;;8.20;99.90;;;;;;5091743;28;20176;-56
2022/04/17 02:16:02;;;;;;;3.22;2.78;;;8.20;99.90;;;;;;5090324;28;20568;-57
2022/04/17 02:18:28;;;;;;;3.20;2.90;;;8.10;99.90;;;;;;5091481;28;20200;-56
2022/04/17 02:20:54;;;;;;;3.80;3.00;;;8.10;99.90;;;;;;5091341;28;20162;-56
2022/04/17 02:23:20;;;;;;;4.72;2.90;;;8.20;99.90;;;;;;5091293;28;20204;-56
2022/04/17 02:25:45;;;;;;;6.55;3.08;;;8.20;99.90;;;;;;5091180;28;20260;-56
2022/04/17 02:28:14;;;;;;;4.45;2.83;;;8.20;99.90;;;;;;5091415;28;20248;-55
2022/04/17 02:30:40;;;;;;;3.67;2.97;;;8.20;99.90;;;;;;5091471;28;20162;-56
2022/04/17 02:33:05;;;;;;;4.35;3.33;;;8.10;99.90;;;;;;5094133;28;20170;-56
2022/04/17 02:35:31;;;;;;;4.82;3.15;;;8.10;99.90;;;;;;5094664;28;20168;-56
2022/04/17 02:37:56;;;;;;;5.00;3.13;;;8.10;99.90;;;;;;5094563;28;20232;-56
2022/04/17 02:40:22;;;;;;;3.50;2.80;;;8.00;99.90;;;;;;5094607;28;20169;-56
2022/04/17 02:42:53;;;;;;;3.58;2.80;;;8.10;99.90;;;;;;5094538;28;20172;-56
2022/04/17 02:45:19;;;;;;;2.88;2.65;;;8.10;99.90;;;;;;5094443;28;20625;-56
2022/04/17 02:47:45;;;;;;;4.93;3.10;;;8.00;99.90;;;;;;5094524;28;20170;-57
2022/04/17 02:50:13;;;;;;;2.88;2.55;;;8.00;99.90;;;;;;5094760;28;20169;-55
2022/04/17 02:52:39;;;;;;;5.45;3.22;;;8.00;99.90;;;;;;5094770;28;20165;-56
2022/04/17 02:55:05;;;;;;;4.35;3.00;;;8.00;99.90;;;;;;5094356;28;20302;-56
2022/04/17 02:57:31;;;;;;;4.10;2.72;;;8.00;99.90;;;;;;5094181;28;20201;-56
2022/04/17 02:59:57;;;;;;;4.47;2.90;;;8.00;99.90;;;;;;5094505;28;20618;-56
2022/04/17 03:07:52;;;;;;;5.18;3.28;;;7.70;99.90;;;;;;5094111;28;20176;-56
2022/04/17 03:10:18;;;;;;;8.07;5.13;;;7.80;99.90;;;;;;5094004;28;20165;-56
2022/04/17 03:12:43;;;;;;;9.50;6.22;;;7.80;99.90;;;;;;5094275;28;20165;-56
2022/04/17 03:15:09;;;;;;;10.82;7.15;;;7.80;99.90;;;;;;5094373;28;20254;-55
2022/04/17 03:17:35;;;;;;;6.25;4.55;;;7.80;99.90;;;;;;5093930;28;20800;-55
2022/04/17 03:20:01;;;;;;;6.75;5.25;;;7.80;99.90;;;;;;5092975;28;20255;-55
2022/04/17 03:22:27;;;;;;;7.45;4.63;;;7.70;99.90;;;;;;5093784;28;20169;-55
2022/04/17 03:24:52;;;;;;;10.52;6.47;;;7.80;99.90;;;;;;5093741;28;20242;-55
2022/04/17 03:27:19;;;;;;;5.32;4.38;;;7.80;99.90;;;;;;5093796;28;20173;-55
2022/04/17 03:29:44;;;;;;;4.53;3.28;;;7.70;99.90;;;;;;5093653;28;20165;-55
2022/04/17 03:32:10;;;;;;;5.53;3.70;;;7.70;99.90;;;;;;5093917;28;20246;-55
2022/04/17 03:34:36;;;;;;;4.20;3.10;;;7.60;99.90;;;;;;5094080;28;20174;-56
2022/04/17 03:37:03;;;;;;;5.10;3.03;;;7.70;99.90;;;;;;5093447;28;20231;-56
2022/04/17 03:39:28;;;;;;;4.80;3.25;;;7.70;99.90;;;;;;5093534;28;20594;-56
2022/04/17 03:41:54;;;;;;;6.00;2.75;;;7.60;99.90;;;;;;5093327;28;20180;-55
2022/04/17 03:44:20;;;;;;;3.65;2.90;;;7.60;99.90;;;;;;5093352;28;20170;-55
2022/04/17 03:46:47;;;;;;;5.03;2.78;;;7.60;99.90;;;;;;5093556;28;20358;-56
2022/04/17 03:49:13;;;;;;;4.22;3.17;;;7.70;99.90;;;;;;5093299;28;20575;-56
2022/04/17 03:51:39;;;;;;;4.93;4.20;;;7.60;99.90;;;;;;5093547;28;20173;-56
2022/04/17 03:54:04;;;;;;;6.03;3.50;;;7.60;99.90;;;;;;5093174;28;20161;-56
2022/04/17 03:56:30;;;;;;;3.67;2.63;;;7.60;99.90;;;;;;5093024;28;20663;-56
2022/04/17 03:58:55;;;;;;;3.95;3.00;;;7.60;99.90;;;;;;5093477;28;20170;-57
2022/04/17 04:01:21;;;;;;;4.05;3.08;;;7.60;99.90;;;;;;5093106;28;20196;-57
2022/04/17 04:03:47;;;;;;;4.55;3.15;;;7.60;99.90;;;;;;5092965;28;20181;-56
2022/04/17 04:06:13;;;;;;;3.85;3.13;;;7.60;99.90;;;;;;5092785;28;20217;-56
2022/04/17 04:08:39;;;;;;;3.92;2.70;;;7.60;99.90;;;;;;5093210;28;20172;-56
2022/04/17 04:11:05;;;;;;;5.88;3.40;;;7.60;99.90;;;;;;5092871;28;20164;-55
2022/04/17 04:13:32;;;;;;;4.60;3.20;;;7.50;99.90;;;;;;5093138;28;20182;-56
2022/04/17 04:15:58;;;;;;;3.92;2.80;;;7.50;99.90;;;;;;5092989;28;20180;-56
2022/04/17 04:18:24;;;;;;;4.85;3.67;;;7.40;99.90;;;;;;5092794;28;20173;-56
2022/04/17 04:20:49;;;;;;;4.10;3.10;;;7.30;99.90;;;;;;5092800;28;20181;-56
2022/04/17 04:23:16;;;;;;;3.08;2.78;;;7.30;99.90;;;;;;5093001;28;20178;-56
2022/04/17 04:25:41;;;;;;;6.10;3.42;;;7.20;99.90;;;;;;5092877;28;20180;-56
2022/04/17 04:30:52;;;;;;;6.40;3.95;;;7.20;99.90;;;;;;5092592;28;20316;-56
2022/04/17 04:33:17;;;;;;;8.10;6.35;;;7.30;99.90;;;;;;5092527;28;20595;-57
2022/04/17 04:35:43;;;;;;;11.80;7.03;;;7.30;99.90;;;;;;5092417;28;20193;-56
2022/04/17 04:38:08;;;;;;;8.02;5.03;;;7.30;99.90;;;;;;5092563;28;20212;-56
2022/04/17 04:40:34;;;;;;;6.15;3.35;;;7.30;99.90;;;;;;5092372;28;20200;-56
2022/04/17 04:43:00;;;;;;;4.15;3.05;;;7.30;99.90;;;;;;5092310;28;20199;-56
2022/04/17 04:48:11;;;;;;;3.42;3.10;;;7.20;99.90;;;;;;5092500;28;20222;-55
2022/04/17 04:50:37;;;;;;;5.88;3.35;;;7.10;99.90;;;;;;5092964;28;20555;-56
2022/04/17 04:53:02;;;;;;;4.38;3.63;;;7.10;99.90;;;;;;5092235;28;20200;-56
2022/04/17 04:55:28;;;;;;;6.82;3.10;;;7.10;99.90;;;;;;5091312;28;20223;-56
2022/04/17 04:57:54;;;;;;;5.40;3.60;;;7.10;99.90;;;;;;5091973;28;20209;-56
2022/04/17 05:00:19;;;;;;;4.68;3.33;;;7.10;99.90;;;;;;5092137;28;20244;-56
2022/04/17 05:02:45;;;;;;;9.23;4.78;;;7.20;99.90;;;;;;5092504;28;20525;-55
2022/04/17 05:05:10;;;;;;;3.92;3.08;;;7.20;99.90;;;;;;5092107;28;20205;-55
2022/04/17 05:07:37;;;;;;;3.97;3.58;;;7.20;99.90;;;;;;5092519;28;20260;-56
2022/04/17 05:10:07;;;;;;;6.07;3.33;;;7.00;99.90;;;;;;5091960;28;20171;-56
2022/04/17 05:12:33;;;;;;;7.88;3.10;;;7.00;99.90;;;;;;5092023;28;20256;-56
2022/04/17 05:14:59;;;;;;;5.85;2.78;;;7.00;99.90;;;;;;5091882;28;20170;-56
2022/04/17 05:17:25;;;;;;;5.95;3.00;;;6.90;99.90;;;;;;5091909;28;20250;-56
2022/04/17 05:19:51;;;;;;;4.93;2.90;;;6.90;99.90;;;;;;5091817;28;20177;-55
2022/04/17 05:22:17;;;;;;;5.65;3.03;;;7.00;99.90;;;;;;5091818;28;20169;-56
2022/04/17 05:24:44;;;;;;;5.78;2.70;;;7.00;99.90;;;;;;5092003;28;20215;-56
2022/04/17 05:27:10;;;;;;;3.97;2.90;;;6.90;99.90;;;;;;5091889;28;20664;-56
2022/04/17 05:29:36;;;;;;;3.85;2.35;;;7.00;99.90;;;;;;5092095;28;20172;-56
2022/04/17 05:32:02;;;;;;;9.60;3.10;;;7.00;99.90;;;;;;5091722;28;20166;-56
2022/04/17 05:34:27;;;;;;;3.17;2.55;;;7.10;99.90;;;;;;5091760;28;20176;-56
2022/04/17 05:36:53;;;;;;;4.07;3.00;;;7.10;99.90;;;;;;5091969;28;20205;-56
2022/04/17 05:39:18;;;;;;;3.83;2.55;;;7.20;99.90;;;;;;5091666;28;20528;-56
2022/04/17 05:41:44;;;;;;;3.10;2.80;;;7.30;99.90;;;;;;5091748;28;20184;-56
2022/04/17 05:44:11;;;;;;;4.32;2.45;;;7.30;99.90;;;;;;5092170;28;20503;-56
2022/04/17 05:46:38;;;;;;;4.20;2.83;;;7.40;99.90;;;;;;5091949;28;20657;-56
2022/04/17 05:49:04;;;;;;;4.22;2.50;;;7.30;99.90;;;;;;5091537;28;20161;-56
2022/04/17 05:51:32;;;;;;;5.18;3.08;;;7.40;99.90;;;;;;5091784;28;20177;-56
2022/04/17 05:53:59;;;;;;;3.13;2.35;;;7.40;99.90;;;;;;5091839;28;20165;-56
2022/04/17 05:56:25;;;;;;;5.50;3.33;;;7.40;99.90;;;;;;5091734;28;20201;-56
2022/04/17 05:58:50;;;;;;;3.72;2.75;;;7.50;99.90;;;;;;5091481;28;20227;-56
2022/04/17 06:01:16;;;;;;;4.47;2.53;;;7.60;99.90;;;;;;5091413;28;20169;-55
2022/04/17 06:03:41;;;;;;;5.25;2.90;;;7.80;99.90;;;;;;5091134;28;20218;-56
2022/04/17 06:06:07;;;;;;;4.10;2.58;;;7.80;99.90;;;;;;5092993;28;20212;-56
2022/04/17 06:08:33;;;;;;;2.67;2.20;;;7.90;99.90;;;;;;5095528;28;20173;-56
2022/04/17 06:10:59;;;;;;;4.45;3.22;;;8.00;99.90;;;;;;5095452;28;20550;-56
2022/04/17 06:13:25;;;;;;;4.60;2.65;;;8.10;99.90;;;;;;5095216;28;20162;-56
2022/04/17 06:15:50;;;;;;;4.55;2.67;;;8.20;99.90;;;;;;5095175;28;20172;-55
2022/04/17 06:18:16;;;;;;;4.28;2.60;;;8.20;99.90;;;;;;5094854;28;20264;-56
2022/04/17 06:20:41;;;;;;;2.42;2.15;;;8.30;99.90;;;;;;5094778;28;20166;-56
2022/04/17 06:23:07;;;;;;;3.60;2.20;;;8.40;99.90;;;;;;5095255;28;20191;-56
2022/04/17 06:25:32;;;;;;;3.70;2.58;;;8.40;99.90;;;;;;5095106;28;20184;-56
2022/04/17 06:27:59;;;;;;;3.20;2.38;;;8.50;99.90;;;;;;5094770;28;20211;-56
2022/04/17 06:30:25;;;;;;;5.18;2.60;;;8.60;99.90;;;;;;5094981;28;20267;-55
2022/04/17 06:32:50;;;;;;;4.75;2.42;;;8.70;99.90;;;;;;5094795;28;20166;-55
2022/04/17 06:35:17;;;;;;;3.60;2.40;;;8.70;99.90;;;;;;5094312;28;20169;-55
2022/04/17 06:37:53;;;;;;;5.40;2.40;;;8.80;99.90;;;;;;5094923;28;20205;-56
2022/04/17 06:40:23;;;;;;;2.85;2.35;;;8.90;99.90;;;;;;5094750;28;20157;-55
2022/04/17 06:42:51;;;;;;;3.20;2.60;;;8.90;99.90;;;;;;5094531;28;20219;-55
2022/04/17 06:45:17;;;;;;;4.03;2.50;;;9.20;99.90;;;;;;5094147;28;20157;-55
2022/04/17 06:47:43;;;;;;;4.38;2.53;;;9.20;99.90;;;;;;5093106;28;20173;-55
2022/04/17 06:50:10;;;;;;;3.30;2.50;;;9.20;99.90;;;;;;5094821;28;20175;-55
2022/04/17 06:52:35;;;;;;;4.68;2.63;;;9.40;99.90;;;;;;5094683;28;20240;-55
2022/04/17 06:55:01;;;;;;;4.22;2.40;;;9.40;99.90;;;;;;5094604;28;20252;-56
2022/04/17 06:57:31;;;;;;;4.10;2.72;;;9.60;99.90;;;;;;5093901;28;20209;-55
2022/04/17 06:59:57;;;;;;;3.00;2.50;;;9.60;99.90;;;;;;5092940;28;20598;-56
2022/04/17 07:02:23;;;;;;;4.75;2.85;;;9.70;99.90;;;;;;5094322;28;20248;-55
2022/04/17 07:04:48;;;;;;;3.78;2.70;;;9.70;99.90;;;;;;5094165;28;20274;-56
2022/04/17 07:07:14;;;;;;;2.58;2.22;;;9.70;99.90;;;;;;5094147;28;20564;-55
2022/04/17 07:09:39;;;;;;;2.88;2.33;;;9.90;99.90;;;;;;5094480;28;20579;-56
2022/04/17 07:12:05;;;;;;;3.40;2.53;;;10.00;99.90;;;;;;5093958;28;20184;-55
2022/04/17 07:14:30;;;;;;;3.45;2.25;;;9.90;99.90;;;;;;5093796;28;20158;-55
2022/04/17 07:16:56;;;;;;;3.42;2.70;;;10.10;99.90;;;;;;5093171;28;20637;-55
2022/04/17 07:19:21;;;;;;;4.22;2.50;;;10.20;99.90;;;;;;5093385;28;20164;-56
2022/04/17 07:21:47;;;;;;;2.92;2.30;;;10.30;99.90;;;;;;5094045;28;20173;-56
2022/04/17 07:24:12;;;;;;;3.40;2.28;;;10.40;99.90;;;;;;5093516;28;20610;-55
2022/04/17 07:26:38;;;;;;;3.75;2.08;;;10.40;99.90;;;;;;5093809;28;20173;-56
2022/04/17 07:29:04;;;;;;;3.72;2.67;;;10.60;99.90;;;;;;5093127;28;20334;-56
2022/04/17 07:31:30;;;;;;;3.40;2.55;;;10.70;99.90;;;;;;5093468;28;20176;-56
2022/04/17 07:33:58;;;;;;;3.20;2.58;;;10.70;99.90;;;;;;5093877;28;20173;-56
2022/04/17 07:36:23;;;;;;;4.15;2.60;;;10.80;99.90;;;;;;5093740;28;20274;-56
2022/04/17 07:38:49;;;;;;;5.53;2.67;;;10.80;99.90;;;;;;5093419;28;20638;-56
2022/04/17 07:41:14;;;;;;;3.83;2.53;;;10.90;99.90;;;;;;5093270;28;20170;-56
2022/04/17 07:43:40;;;;;;;3.92;2.35;;;11.10;99.90;;;;;;5093078;28;20222;-56
2022/04/17 07:46:05;;;;;;;6.22;2.40;;;11.10;99.90;;;;;;5093612;28;20197;-58
2022/04/17 07:48:31;;;;;;;2.42;2.08;;;11.30;99.90;;;;;;5093221;28;20621;-57
2022/04/17 07:50:56;;;;;;;3.63;2.40;;;11.30;99.90;;;;;;5093350;28;20169;-57
2022/04/17 07:53:22;;;;;;;3.53;2.60;;;11.40;99.90;;;;;;5093247;28;20173;-57
2022/04/17 07:55:49;;;;;;;2.95;2.65;;;11.60;99.90;;;;;;5093163;28;20519;-57
2022/04/17 07:58:23;;;;;;;4.22;2.17;;;11.50;99.90;;;;;;5093067;28;20243;-57
2022/04/17 08:00:59;;;;;;;3.70;2.22;;;11.60;99.90;;;;;;5093375;28;20176;-57
2022/04/17 08:03:37;;;;;;;5.03;2.58;;;11.60;99.50;;;;;;5093288;28;20226;-57
2022/04/17 08:06:07;;;;;;;6.95;2.53;;;11.70;99.90;;;;;;5091486;28;20281;-59
2022/04/17 08:08:34;;;;;;;3.17;2.30;;;11.90;99.90;;;;;;5093178;28;20245;-57
2022/04/17 08:11:00;;;;;;;2.78;2.13;;;11.80;99.00;;;;;;5092692;28;20170;-57
2022/04/17 08:13:26;;;;;;;2.88;2.50;;;12.10;99.20;;;;;;5092871;28;20644;-57
2022/04/17 08:15:51;;;;;;;4.05;2.55;;;12.30;99.50;;;;;;5092858;28;20169;-57
2022/04/17 08:18:17;;;;;;;4.43;2.30;;;12.40;97.90;;;;;;5092692;28;20568;-56
2022/04/17 08:20:43;;;;;;;2.80;2.22;;;12.20;96.70;;;;;;5092775;28;20165;-56
2022/04/17 08:23:08;;;;;;;2.45;2.25;;;12.30;99.00;;;;;;5093182;28;20177;-57
2022/04/17 08:25:34;;;;;;;3.00;2.03;;;12.50;98.50;;;;;;5092627;28;20618;-56
2022/04/17 08:28:00;;;;;;;3.47;2.17;;;12.60;96.40;;;;;;5092650;28;20204;-57
2022/04/17 08:30:27;;;;;;;4.68;2.25;;;12.50;96.30;;;;;;5092550;28;20179;-57
2022/04/17 08:32:53;;;;;;;2.20;2.00;;;12.60;94.90;;;;;;5092795;28;20173;-56
2022/04/17 08:35:19;;;;;;;4.47;2.10;;;12.80;95.00;;;;;;5092460;28;20255;-56
2022/04/17 08:37:45;;;;;;;2.28;2.08;;;12.70;96.70;;;;;;5092366;28;20205;-57
2022/04/17 08:40:12;;;;;;;4.07;2.15;;;12.90;94.90;;;;;;5092419;28;20214;-56
2022/04/17 08:42:39;;;;;;;3.13;2.00;;;12.90;94.50;;;;;;5092629;28;20169;-56
2022/04/17 08:45:05;;;;;;;2.72;2.15;;;13.00;94.80;;;;;;5092570;28;20165;-57
2022/04/17 08:47:32;;;;;;;4.15;1.90;;;13.20;95.20;;;;;;5091776;28;20231;-56
2022/04/17 08:49:57;;;;;;;2.53;1.88;;;13.30;94.30;;;;;;5091774;28;20168;-56
2022/04/17 08:52:23;;;;;;;2.60;1.90;;;13.40;93.20;;;;;;5092009;28;20169;-58
2022/04/17 08:54:50;;;;;;;4.55;2.65;;;13.60;92.90;;;;;;5092430;28;20200;-57
2022/04/17 08:57:20;;;;;;;3.03;2.20;;;13.40;91.70;;;;;;5092247;28;20291;-56
2022/04/17 08:59:46;;;;;;;2.63;1.88;;;13.70;91.90;;;;;;5092037;28;20617;-57
2022/04/17 09:02:12;;;;;;;2.72;1.98;;;13.60;91.40;;;;;;5091675;28;20199;-57
2022/04/17 09:04:41;;;;;;;3.05;2.42;;;13.50;92.20;;;;;;5092291;28;20220;-57
2022/04/17 09:07:08;;;;;;;4.38;2.25;;;13.70;90.20;;;;;;5092056;28;20186;-56
2022/04/17 09:09:54;;;;;;;2.33;2.05;;;13.90;89.90;;;;;;5092161;28;20161;-56
2022/04/17 09:12:25;;;;;;;2.95;2.10;;;13.90;90.10;;;;;;5091910;28;20203;-57
2022/04/17 09:14:55;;;;;;;2.95;2.00;;;13.90;89.40;;;;;;5091897;28;20204;-57
2022/04/17 09:17:32;;;;;;;2.83;1.95;;;14.00;89.10;;;;;;5091820;28;20213;-58
2022/04/17 09:19:57;;;;;;;5.10;2.38;;;14.30;90.50;;;;;;5091784;28;20153;-56
2022/04/17 09:22:23;;;;;;;4.10;2.38;;;15.60;88.20;;;;;;5091625;28;20574;-58
2022/04/17 09:24:49;;;;;;;3.00;2.10;;;14.20;86.80;;;;;;5091664;28;20207;-56
2022/04/17 09:27:14;;;;;;;4.60;1.92;;;14.40;86.00;;;;;;5091647;28;20173;-59
2022/04/17 09:29:40;;;;;;;3.60;2.03;;;14.50;86.60;;;;;;5091912;28;20161;-58
2022/04/17 09:32:11;;;;;;;3.55;2.10;;;14.60;84.80;;;;;;5092201;28;20169;-58
2022/04/17 09:34:56;;;;;;;4.85;2.50;;;14.40;84.20;;;;;;5091970;28;20157;-58
2022/04/17 09:37:28;;;;;;;3.85;2.13;;;14.40;83.50;;;;;;5091437;28;20229;-58
2022/04/17 09:40:06;;;;;;;3.42;1.98;;;14.30;84.90;;;;;;5091606;28;20645;-58
2022/04/17 09:42:32;;;;;;;3.55;1.95;;;14.60;85.50;;;;;;5095752;28;20775;-58
2022/04/17 09:44:57;;;;;;;3.67;2.38;;;14.70;85.70;;;;;;5095627;28;20211;-57
2022/04/17 09:47:28;;;;;;;17.35;8.45;;;14.70;83.10;;;;;;5095647;28;20619;-57
2022/04/17 09:50:02;;;;;;;7.60;2.20;;;14.70;83.80;;;;;;5095616;28;20176;-57
2022/04/17 09:52:32;;;;;;;8.65;4.05;;;14.90;83.90;;;;;;5095385;28;20288;-58
2022/04/17 09:54:59;;;;;;;17.92;8.77;;;15.00;82.20;;;;;;5095362;28;20771;-57
2022/04/17 09:57:29;;;;;;;3.45;2.78;;;15.30;83.00;;;;;;5094968;28;20212;-57
2022/04/17 09:59:56;;;;;;;11.88;7.32;;;15.50;80.40;;;;;;5095027;28;20170;-57
2022/04/17 10:02:25;;;;;;;3.22;2.90;;;15.50;82.00;;;;;;5094316;28;20299;-59
2022/04/17 10:04:51;;;;;;;42.67;30.85;;;15.60;82.00;;;;;;5094718;28;20261;-57
2022/04/17 10:07:19;;;;;;;2.78;2.22;;;15.70;82.20;;;;;;5094217;28;20180;-56
2022/04/17 10:09:46;;;;;;;6.95;5.15;;;15.80;80.40;;;;;;5095216;28;20170;-58
2022/04/17 10:12:14;;;;;;;17.20;13.00;;;15.80;78.60;;;;;;5094508;28;20171;-57
2022/04/17 10:14:41;;;;;;;3.55;3.25;;;15.70;79.30;;;;;;5094738;28;20225;-59
2022/04/17 10:17:08;;;;;;;5.63;2.25;;;15.70;78.20;;;;;;5095273;28;20205;-58
2022/04/17 10:19:35;;;;;;;3.67;2.97;;;15.80;78.20;;;;;;5093343;28;20248;-57
2022/04/17 10:22:03;;;;;;;3.63;2.42;;;16.00;80.20;;;;;;5094352;28;20223;-57
2022/04/17 10:24:29;;;;;;;5.97;5.40;;;16.20;77.80;;;;;;5093770;28;20171;-59
2022/04/17 10:26:55;;;;;;;3.25;1.98;;;16.10;76.90;;;;;;5095116;28;20245;-57
2022/04/17 10:29:34;;;;;;;5.40;4.90;;;16.10;79.10;;;;;;5095145;28;20177;-57
2022/04/17 10:32:18;;;;;;;2.97;1.83;;;16.20;78.20;;;;;;5094717;28;20217;-59
2022/04/17 10:35:09;;;;;;;2.97;2.10;;;16.20;77.60;;;;;;5094879;28;20187;-58
2022/04/17 10:37:52;;;;;;;2.80;2.42;;;16.40;74.40;;;;;;5094925;28;20205;-57
2022/04/17 10:40:18;;;;;;;2.75;1.95;;;16.40;76.00;;;;;;5094745;28;20166;-57
2022/04/17 10:43:02;;;;;;;3.08;1.67;;;16.40;75.40;;;;;;5094546;28;20196;-57
2022/04/17 10:45:31;;;;;;;4.38;2.30;;;16.70;76.10;;;;;;5094799;28;20169;-57
2022/04/17 10:48:09;;;;;;;4.55;2.78;;;16.60;76.00;;;;;;5094213;28;20215;-58
2022/04/17 10:50:49;;;;;;;3.47;3.08;;;16.90;76.60;;;;;;5094840;28;20507;-57
2022/04/17 10:53:28;;;;;;;3.92;2.90;;;16.90;74.30;;;;;;5092862;28;20184;-59
2022/04/17 10:56:04;;;;;;;4.70;4.30;;;17.20;75.70;;;;;;5094469;28;20231;-58
2022/04/17 10:58:41;;;;;;;3.13;2.80;;;17.20;74.90;;;;;;5094290;28;20234;-59
2022/04/17 11:01:08;;;;;;;2.55;1.85;;;17.00;71.40;;;;;;5094838;28;20187;-57
2022/04/17 11:03:35;;;;;;;3.38;2.17;;;17.00;69.60;;;;;;5094295;28;20215;-58
2022/04/17 11:06:33;;;;;;;5.00;1.98;;;17.20;72.00;;;;;;5094082;28;20220;-58
2022/04/17 11:09:30;;;;;;;2.55;1.77;;;17.20;70.70;;;;;;5094343;28;20193;-59
2022/04/17 11:12:08;;;;;;;7.47;2.08;;;17.20;70.50;;;;;;5094135;28;20530;-59
2022/04/17 11:14:33;;;;;;;3.75;2.15;;;17.30;69.70;;;;;;5093977;28;20176;-58
2022/04/17 11:17:01;;;;;;;1.95;1.48;;;17.20;67.40;;;;;;5093664;28;20310;-59
2022/04/17 11:19:31;;;;;;;3.30;1.95;;;17.30;66.10;;;;;;5094238;28;20174;-58
2022/04/17 11:22:01;;;;;;;3.03;2.47;;;17.40;64.50;;;;;;5093517;28;20268;-57
2022/04/17 11:24:29;;;;;;;3.42;2.10;;;17.20;65.10;;;;;;5092989;28;20188;-57
2022/04/17 11:26:55;;;;;;;5.07;1.48;;;17.30;65.00;;;;;;5093969;28;20238;-56
2022/04/17 11:29:40;;;;;;;2.15;1.30;;;17.40;64.90;;;;;;5093669;28;20242;-56
2022/04/17 11:32:29;;;;;;;2.22;1.60;;;17.50;64.40;;;;;;5092284;28;20565;-56
2022/04/17 11:35:01;;;;;;;2.38;1.60;;;17.50;66.90;;;;;;5093623;28;20169;-57
2022/04/17 11:37:31;;;;;;;4.15;1.88;;;17.60;68.40;;;;;;5093400;28;20274;-57
2022/04/17 11:40:06;;;;;;;1.80;1.70;;;18.00;69.10;;;;;;5091761;28;20206;-57
2022/04/17 11:42:49;;;;;;;4.95;1.83;;;18.10;67.80;;;;;;5093122;28;20207;-57
2022/04/17 11:45:17;;;;;;;2.60;1.60;;;18.00;66.70;;;;;;5092215;28;20244;-57
2022/04/17 11:47:45;;;;;;;3.53;1.65;;;18.00;65.70;;;;;;5091505;28;20362;-58
2022/04/17 11:50:12;;;;;;;6.57;1.73;;;19.90;69.50;;;;;;5091888;28;20166;-57
2022/04/17 11:52:38;;;;;;;3.70;1.92;;;17.90;67.30;;;;;;5093520;28;20181;-59
2022/04/17 11:55:05;;;;;;;4.13;1.63;;;17.90;65.10;;;;;;5093218;28;20170;-59
2022/04/17 11:57:32;;;;;;;2.55;1.83;;;18.00;65.50;;;;;;5093344;28;20663;-59
2022/04/17 11:59:58;;;;;;;3.58;2.00;;;18.10;65.10;;;;;;5092964;28;20638;-59
2022/04/17 12:02:25;;;;;;;1.98;1.60;;;18.20;66.10;;;;;;5093056;28;20542;-59
2022/04/17 12:04:55;;;;;;;3.03;1.88;;;18.40;67.30;;;;;;5090792;28;20577;-59
2022/04/17 12:07:23;;;;;;;3.75;1.80;;;18.40;65.00;;;;;;5093002;28;20165;-59
2022/04/17 12:09:49;;;;;;;2.47;1.75;;;18.40;65.40;;;;;;5092880;28;20706;-59
2022/04/17 12:12:16;;;;;;;2.60;1.70;;;18.50;67.00;;;;;;5092753;28;20176;-59
2022/04/17 12:14:43;;;;;;;2.08;1.70;;;18.40;65.70;;;;;;5092870;28;20165;-58
2022/04/17 12:17:09;;;;;;;1.65;1.42;;;18.40;65.50;;;;;;5092918;28;20221;-59
2022/04/17 12:19:35;;;;;;;2.17;1.70;;;18.20;68.10;;;;;;5092666;28;20223;-58
2022/04/17 12:22:11;;;;;;;3.38;1.77;;;18.00;66.60;;;;;;5092448;28;20239;-59
2022/04/17 12:24:37;;;;;;;2.38;1.40;;;18.20;68.50;;;;;;5092824;28;20173;-59
2022/04/17 12:27:04;;;;;;;4.75;1.90;;;18.30;65.70;;;;;;5092809;28;20165;-59
2022/04/17 12:29:30;;;;;;;3.75;1.65;;;18.50;65.50;;;;;;5092527;28;20165;-58
2022/04/17 12:31:55;;;;;;;2.97;1.40;;;18.50;65.20;;;;;;5092372;28;20162;-58
2022/04/17 12:34:23;;;;;;;2.55;1.48;;;18.90;67.40;;;;;;5092446;28;20244;-59
2022/04/17 12:36:49;;;;;;;1.70;1.60;;;19.10;66.40;;;;;;5092330;28;20658;-58
2022/04/17 12:39:15;;;;;;;7.82;3.92;;;18.70;62.70;;;;;;5091113;28;20257;-59
2022/04/17 12:41:44;;;;;;;3.10;1.40;;;18.90;64.70;;;;;;5092563;28;20169;-58
2022/04/17 12:44:10;;;;;;;4.45;1.80;;;18.90;64.90;;;;;;5092450;28;20558;-57
2022/04/17 12:46:42;;;;;;;6.55;1.65;;;18.90;64.20;;;;;;5092500;28;20294;-59
2022/04/17 12:49:09;;;;;;;2.97;1.40;;;18.60;66.10;;;;;;5092774;28;20169;-58
2022/04/17 12:51:36;;;;;;;3.22;1.50;;;18.70;64.70;;;;;;5092256;28;20157;-59
2022/04/17 12:54:03;;;;;;;2.33;1.20;;;18.80;65.60;;;;;;5092082;28;20158;-58
2022/04/17 12:56:28;;;;;;;3.35;1.65;;;19.00;63.40;;;;;;5092223;28;20296;-58
2022/04/17 12:58:55;;;;;;;2.30;1.50;;;19.10;64.40;;;;;;5091785;28;20693;-59
2022/04/17 13:01:27;;;;;;;2.65;1.38;;;19.10;63.00;;;;;;5092169;28;20173;-58
2022/04/17 13:04:07;;;;;;;2.05;1.55;;;19.00;61.20;;;;;;5091882;28;20222;-59
2022/04/17 13:06:33;;;;;;;2.17;1.52;;;19.20;64.10;;;;;;5090730;28;20212;-59